createdAt,value
2023-04-30T00:00:05.533Z,6.54
2023-04-30T00:01:05.514Z,6.54
2023-04-30T00:02:05.566Z,6.52
2023-04-30T00:03:05.631Z,6.54
2023-04-30T00:04:05.524Z,6.54
2023-04-30T00:05:05.486Z,6.49
2023-04-30T00:06:05.509Z,6.49
2023-04-30T00:07:05.471Z,6.51
2023-04-30T00:08:05.447Z,6.51
2023-04-30T00:09:05.445Z,6.48
2023-04-30T00:10:05.583Z,6.46
2023-04-30T00:11:05.433Z,6.46
2023-04-30T00:12:05.416Z,6.44
2023-04-30T00:13:05.406Z,6.46
2023-04-30T00:14:05.381Z,6.43
2023-04-30T00:15:05.378Z,6.41
2023-04-30T00:16:05.420Z,6.43
2023-04-30T00:17:05.383Z,6.40
2023-04-30T00:18:05.429Z,6.40
2023-04-30T00:19:05.341Z,6.38
2023-04-30T00:20:05.335Z,6.37
2023-04-30T00:21:05.312Z,6.33
2023-04-30T00:22:05.304Z,6.33
2023-04-30T00:23:05.288Z,6.30
2023-04-30T00:24:05.305Z,6.27
2023-04-30T00:25:05.275Z,6.25
2023-04-30T00:26:05.273Z,6.21
2023-04-30T00:27:05.238Z,6.18
2023-04-30T00:28:05.230Z,6.17
2023-04-30T00:29:05.205Z,6.14
2023-04-30T00:30:05.212Z,6.12
2023-04-30T00:31:05.220Z,6.12
2023-04-30T00:32:05.219Z,6.11
2023-04-30T00:33:05.240Z,6.09
2023-04-30T00:34:05.154Z,6.12
2023-04-30T00:35:05.152Z,6.12
2023-04-30T00:36:05.183Z,6.11
2023-04-30T00:37:05.152Z,6.14
2023-04-30T00:38:05.158Z,6.17
2023-04-30T00:39:05.122Z,6.18
2023-04-30T00:40:05.119Z,6.17
2023-04-30T00:41:05.117Z,6.15
2023-04-30T00:42:05.152Z,6.14
2023-04-30T00:43:05.076Z,6.08
2023-04-30T00:44:05.085Z,6.06
2023-04-30T00:45:05.032Z,6.04
2023-04-30T00:46:05.078Z,6.01
2023-04-30T00:47:05.020Z,6.01
2023-04-30T00:48:05.048Z,6.04
2023-04-30T00:49:05.270Z,6.04
2023-04-30T00:50:04.991Z,6.04
2023-04-30T00:51:04.973Z,6.01
2023-04-30T00:52:04.968Z,6.00
2023-04-30T00:53:04.958Z,5.96
2023-04-30T00:54:04.978Z,5.94
2023-04-30T00:55:04.943Z,5.96
2023-04-30T00:56:04.930Z,5.94
2023-04-30T00:57:04.912Z,5.96
2023-04-30T00:58:04.921Z,5.96
2023-04-30T00:59:04.883Z,5.97
2023-04-30T01:00:05.039Z,5.90
2023-04-30T01:01:04.960Z,5.81
2023-04-30T01:02:04.890Z,5.67
2023-04-30T01:03:04.935Z,5.56
2023-04-30T01:04:04.853Z,5.42
2023-04-30T01:05:04.832Z,5.30
2023-04-30T01:06:04.896Z,5.24
2023-04-30T01:07:04.795Z,5.25
2023-04-30T01:08:04.810Z,5.22
2023-04-30T01:09:04.769Z,5.18
2023-04-30T01:10:04.782Z,5.17
2023-04-30T01:11:04.762Z,5.13
2023-04-30T01:12:04.758Z,5.10
2023-04-30T01:13:04.756Z,5.10
2023-04-30T01:14:04.754Z,5.13
2023-04-30T01:15:04.712Z,5.12
2023-04-30T01:16:04.803Z,5.10
2023-04-30T01:17:04.732Z,5.03
2023-04-30T01:18:04.746Z,5.02
2023-04-30T01:19:04.702Z,4.96
2023-04-30T01:20:04.658Z,4.99
2023-04-30T01:21:04.664Z,4.99
2023-04-30T01:22:04.671Z,5.00
2023-04-30T01:23:04.642Z,4.94
2023-04-30T01:24:04.670Z,4.85
2023-04-30T01:25:04.637Z,4.73
2023-04-30T01:26:04.610Z,4.58
2023-04-30T01:27:04.626Z,4.58
2023-04-30T01:28:04.592Z,4.65
2023-04-30T01:29:04.580Z,4.67
2023-04-30T01:30:04.598Z,4.69
2023-04-30T01:31:04.564Z,4.65
2023-04-30T01:32:04.556Z,4.65
2023-04-30T01:33:04.632Z,4.67
2023-04-30T01:34:04.526Z,4.67
2023-04-30T01:35:04.507Z,4.70
2023-04-30T01:36:04.483Z,4.72
2023-04-30T01:37:04.440Z,4.75
2023-04-30T01:38:04.482Z,4.73
2023-04-30T01:39:04.458Z,4.70
2023-04-30T01:40:04.427Z,4.66
2023-04-30T01:41:04.388Z,4.66
2023-04-30T01:42:04.457Z,4.63
2023-04-30T01:43:04.442Z,4.51
2023-04-30T01:44:04.422Z,4.45
2023-04-30T01:45:04.423Z,4.47
2023-04-30T01:46:04.418Z,4.48
2023-04-30T01:47:04.379Z,4.58
2023-04-30T01:48:04.433Z,4.55
2023-04-30T01:49:04.403Z,4.55
2023-04-30T01:50:04.353Z,4.54
2023-04-30T01:51:04.361Z,4.58
2023-04-30T01:52:04.335Z,4.60
2023-04-30T01:53:04.313Z,4.60
2023-04-30T01:54:04.310Z,4.58
2023-04-30T01:55:04.290Z,4.54
2023-04-30T01:56:04.317Z,4.55
2023-04-30T01:57:04.325Z,4.47
2023-04-30T01:58:04.283Z,4.45
2023-04-30T01:59:04.265Z,4.47
2023-04-30T02:00:04.280Z,4.47
2023-04-30T02:01:04.408Z,4.47
2023-04-30T02:02:04.261Z,4.45
2023-04-30T02:03:04.310Z,4.41
2023-04-30T02:04:04.231Z,4.42
2023-04-30T02:05:04.192Z,4.36
2023-04-30T02:06:04.234Z,4.40
2023-04-30T02:07:04.187Z,4.37
2023-04-30T02:08:04.176Z,4.36
2023-04-30T02:09:04.156Z,4.34
2023-04-30T02:10:04.156Z,4.40
2023-04-30T02:11:04.145Z,4.50
2023-04-30T02:12:04.122Z,4.55
2023-04-30T02:13:04.317Z,4.59
2023-04-30T02:14:04.116Z,4.63
2023-04-30T02:15:04.083Z,4.65
2023-04-30T02:16:04.117Z,4.60
2023-04-30T02:17:04.060Z,4.58
2023-04-30T02:18:04.305Z,4.52
2023-04-30T02:19:04.077Z,4.58
2023-04-30T02:20:04.032Z,4.58
2023-04-30T02:21:04.011Z,4.55
2023-04-30T02:22:04.015Z,4.47
2023-04-30T02:23:03.997Z,4.40
2023-04-30T02:24:03.994Z,4.34
2023-04-30T02:25:03.999Z,4.33
2023-04-30T02:26:03.973Z,4.33
2023-04-30T02:27:03.952Z,4.34
2023-04-30T02:28:03.970Z,4.32
2023-04-30T02:29:03.941Z,4.29
2023-04-30T02:30:03.937Z,4.20
2023-04-30T02:31:03.921Z,4.18
2023-04-30T02:32:04.091Z,4.14
2023-04-30T02:33:03.969Z,4.12
2023-04-30T02:34:03.879Z,4.14
2023-04-30T02:35:03.891Z,4.18
2023-04-30T02:36:03.903Z,4.23
2023-04-30T02:37:03.874Z,4.29
2023-04-30T02:38:03.854Z,4.29
2023-04-30T02:39:03.849Z,4.26
2023-04-30T02:40:03.840Z,4.22
2023-04-30T02:41:03.824Z,4.20
2023-04-30T02:42:03.804Z,4.23
2023-04-30T02:43:03.804Z,4.26
2023-04-30T02:44:03.770Z,4.26
2023-04-30T02:45:03.782Z,4.23
2023-04-30T02:46:03.820Z,4.16
2023-04-30T02:47:03.771Z,4.12
2023-04-30T02:48:03.813Z,4.09
2023-04-30T02:49:03.746Z,4.09
2023-04-30T02:50:03.716Z,4.09
2023-04-30T02:51:03.707Z,4.11
2023-04-30T02:52:03.692Z,4.15
2023-04-30T02:53:03.697Z,4.16
2023-04-30T02:54:03.703Z,4.14
2023-04-30T02:55:03.678Z,4.20
2023-04-30T02:56:03.690Z,4.16
2023-04-30T02:57:03.656Z,4.12
2023-04-30T02:58:03.639Z,4.09
2023-04-30T02:59:03.632Z,4.09
2023-04-30T03:00:03.630Z,4.09
2023-04-30T03:01:03.676Z,4.06
2023-04-30T03:02:03.624Z,4.04
2023-04-30T03:03:03.650Z,4.02
2023-04-30T03:04:03.568Z,4.00
2023-04-30T03:05:03.563Z,3.97
2023-04-30T03:06:03.581Z,3.94
2023-04-30T03:07:03.560Z,3.96
2023-04-30T03:08:03.547Z,4.00
2023-04-30T03:09:03.522Z,3.98
2023-04-30T03:10:03.502Z,3.98
2023-04-30T03:11:03.496Z,3.97
2023-04-30T03:12:03.492Z,4.00
2023-04-30T03:13:03.483Z,3.97
2023-04-30T03:14:03.474Z,4.00
2023-04-30T03:15:03.456Z,3.96
2023-04-30T03:16:03.568Z,3.97
2023-04-30T03:17:03.449Z,4.00
2023-04-30T03:18:03.506Z,4.00
2023-04-30T03:19:03.420Z,3.96
2023-04-30T03:20:03.400Z,3.91
2023-04-30T03:21:03.423Z,4.00
2023-04-30T03:22:03.388Z,4.08
2023-04-30T03:23:03.367Z,4.18
2023-04-30T03:24:03.368Z,4.14
2023-04-30T03:25:03.386Z,4.08
2023-04-30T03:26:03.343Z,4.08
2023-04-30T03:27:03.390Z,4.04
2023-04-30T03:28:03.334Z,4.05
2023-04-30T03:29:03.322Z,4.05
2023-04-30T03:30:03.305Z,4.06
2023-04-30T03:31:03.380Z,4.05
2023-04-30T03:32:03.291Z,4.06
2023-04-30T03:33:03.334Z,4.02
2023-04-30T03:34:03.255Z,4.04
2023-04-30T03:35:03.262Z,4.00
2023-04-30T03:36:03.251Z,3.93
2023-04-30T03:37:03.248Z,3.93
2023-04-30T03:38:03.229Z,3.90
2023-04-30T03:39:03.232Z,3.88
2023-04-30T03:40:03.152Z,3.84
2023-04-30T03:41:03.135Z,3.76
2023-04-30T03:42:03.149Z,3.76
2023-04-30T03:43:03.120Z,3.73
2023-04-30T03:44:03.108Z,3.72
2023-04-30T03:45:03.114Z,3.75
2023-04-30T03:46:03.117Z,3.75
2023-04-30T03:47:03.097Z,3.79
2023-04-30T03:48:03.182Z,3.78
2023-04-30T03:49:03.052Z,3.80
2023-04-30T03:50:03.052Z,3.84
2023-04-30T03:51:03.030Z,3.80
2023-04-30T03:52:03.024Z,3.79
2023-04-30T03:53:03.007Z,3.76
2023-04-30T03:54:03.000Z,3.76
2023-04-30T03:55:03.015Z,3.78
2023-04-30T03:56:02.985Z,3.78
2023-04-30T03:57:02.985Z,3.80
2023-04-30T03:58:02.973Z,3.73
2023-04-30T03:59:02.974Z,3.65
2023-04-30T04:00:02.957Z,3.54
2023-04-30T04:01:02.934Z,3.48
2023-04-30T04:02:02.995Z,3.33
2023-04-30T04:03:02.950Z,3.29
2023-04-30T04:04:02.929Z,3.24
2023-04-30T04:05:02.896Z,3.24
2023-04-30T04:06:02.954Z,3.26
2023-04-30T04:07:02.875Z,3.18
2023-04-30T04:08:02.849Z,3.21
2023-04-30T04:09:02.870Z,3.18
2023-04-30T04:10:02.835Z,3.28
2023-04-30T04:11:02.824Z,3.31
2023-04-30T04:12:02.822Z,3.36
2023-04-30T04:13:02.823Z,3.42
2023-04-30T04:14:02.800Z,3.50
2023-04-30T04:15:02.785Z,3.58
2023-04-30T04:16:02.852Z,3.66
2023-04-30T04:17:02.784Z,3.72
2023-04-30T04:18:02.802Z,3.73
2023-04-30T04:19:02.768Z,3.76
2023-04-30T04:20:02.730Z,3.79
2023-04-30T04:21:02.788Z,3.78
2023-04-30T04:22:02.735Z,3.78
2023-04-30T04:23:02.715Z,3.80
2023-04-30T04:24:02.708Z,3.86
2023-04-30T04:25:02.707Z,3.86
2023-04-30T04:26:02.673Z,3.80
2023-04-30T04:27:02.677Z,3.73
2023-04-30T04:28:02.656Z,3.75
2023-04-30T04:29:02.652Z,3.79
2023-04-30T04:30:02.646Z,3.73
2023-04-30T04:31:02.652Z,3.73
2023-04-30T04:32:02.632Z,3.72
2023-04-30T04:33:02.682Z,3.69
2023-04-30T04:34:02.591Z,3.72
2023-04-30T04:35:02.613Z,3.73
2023-04-30T04:36:02.589Z,3.75
2023-04-30T04:37:02.570Z,3.73
2023-04-30T04:38:02.596Z,3.73
2023-04-30T04:39:02.563Z,3.68
2023-04-30T04:40:02.527Z,3.69
2023-04-30T04:41:02.505Z,3.69
2023-04-30T04:42:02.524Z,3.73
2023-04-30T04:43:02.496Z,3.76
2023-04-30T04:44:02.543Z,3.76
2023-04-30T04:45:02.486Z,3.80
2023-04-30T04:46:02.618Z,3.84
2023-04-30T04:47:02.464Z,3.86
2023-04-30T04:48:02.598Z,3.84
2023-04-30T04:49:02.433Z,3.84
2023-04-30T04:50:02.421Z,3.83
2023-04-30T04:51:02.404Z,3.80
2023-04-30T04:52:02.395Z,3.79
2023-04-30T04:53:02.398Z,3.79
2023-04-30T04:54:02.373Z,3.78
2023-04-30T04:55:02.390Z,3.76
2023-04-30T04:56:02.350Z,3.79
2023-04-30T04:57:02.355Z,3.86
2023-04-30T04:58:02.326Z,3.94
2023-04-30T04:59:02.335Z,4.02
2023-04-30T05:00:02.325Z,4.11
2023-04-30T05:01:02.306Z,4.14
2023-04-30T05:02:02.325Z,4.24
2023-04-30T05:03:02.338Z,4.30
2023-04-30T05:04:02.404Z,4.34
2023-04-30T05:05:02.277Z,4.37
2023-04-30T05:06:02.260Z,4.44
2023-04-30T05:07:02.249Z,4.47
2023-04-30T05:08:02.224Z,4.54
2023-04-30T05:09:02.212Z,4.60
2023-04-30T05:10:02.231Z,4.65
2023-04-30T05:11:02.203Z,4.70
2023-04-30T05:12:02.253Z,4.73
2023-04-30T05:13:02.189Z,4.82
2023-04-30T05:14:02.178Z,4.86
2023-04-30T05:15:02.193Z,4.89
2023-04-30T05:16:02.186Z,4.96
2023-04-30T05:17:02.138Z,4.96
2023-04-30T05:18:02.268Z,4.97
2023-04-30T05:19:02.127Z,4.99
2023-04-30T05:20:02.113Z,5.02
2023-04-30T05:21:02.266Z,5.03
2023-04-30T05:22:02.080Z,5.06
2023-04-30T05:23:02.071Z,5.07
2023-04-30T05:24:02.089Z,5.12
2023-04-30T05:25:02.073Z,5.15
2023-04-30T05:26:02.037Z,5.17
2023-04-30T05:27:02.053Z,5.24
2023-04-30T05:28:02.031Z,5.27
2023-04-30T05:29:02.016Z,5.33
2023-04-30T05:30:02.035Z,5.38
2023-04-30T05:31:01.996Z,5.43
2023-04-30T05:32:02.001Z,5.46
2023-04-30T05:33:02.034Z,5.54
2023-04-30T05:34:01.968Z,5.56
2023-04-30T05:35:01.972Z,5.61
2023-04-30T05:36:01.955Z,5.67
2023-04-30T05:37:01.929Z,5.74
2023-04-30T05:38:01.924Z,5.78
2023-04-30T05:39:01.912Z,5.85
2023-04-30T05:40:01.909Z,5.89
2023-04-30T05:41:01.888Z,5.94
2023-04-30T05:42:01.875Z,5.97
2023-04-30T05:43:01.893Z,6.01
2023-04-30T05:44:01.847Z,6.04
2023-04-30T05:45:01.837Z,6.12
2023-04-30T05:46:01.896Z,6.11
2023-04-30T05:47:01.945Z,6.09
2023-04-30T05:48:01.990Z,6.06
2023-04-30T05:49:01.828Z,6.08
2023-04-30T05:50:01.814Z,6.11
2023-04-30T05:51:01.792Z,6.15
2023-04-30T05:52:01.806Z,6.21
2023-04-30T05:53:01.757Z,6.22
2023-04-30T05:54:01.767Z,6.27
2023-04-30T05:55:01.758Z,6.28
2023-04-30T05:56:01.747Z,6.28
2023-04-30T05:57:01.729Z,6.31
2023-04-30T05:58:01.699Z,6.34
2023-04-30T05:59:01.702Z,6.36
2023-04-30T06:00:01.709Z,6.43
2023-04-30T06:01:01.688Z,6.49
2023-04-30T06:02:01.737Z,6.52
2023-04-30T06:03:01.705Z,6.56
2023-04-30T06:04:01.668Z,6.59
2023-04-30T06:05:01.693Z,6.59
2023-04-30T06:06:01.676Z,6.62
2023-04-30T06:07:01.620Z,6.66
2023-04-30T06:08:01.611Z,6.61
2023-04-30T06:09:01.627Z,6.66
2023-04-30T06:10:01.564Z,6.66
2023-04-30T06:11:01.590Z,6.67
2023-04-30T06:12:01.562Z,6.67
2023-04-30T06:13:01.568Z,6.66
2023-04-30T06:14:01.547Z,6.70
2023-04-30T06:15:01.521Z,6.73
2023-04-30T06:16:01.576Z,6.73
2023-04-30T06:17:01.601Z,6.76
2023-04-30T06:18:01.544Z,6.79
2023-04-30T06:19:01.493Z,6.85
2023-04-30T06:20:01.490Z,6.85
2023-04-30T06:21:01.489Z,6.88
2023-04-30T06:22:01.489Z,6.89
2023-04-30T06:23:01.444Z,6.95
2023-04-30T06:24:01.447Z,6.94
2023-04-30T06:25:01.452Z,6.95
2023-04-30T06:26:01.405Z,6.98
2023-04-30T06:27:01.403Z,7.03
2023-04-30T06:28:01.372Z,6.98
2023-04-30T06:29:01.365Z,7.02
2023-04-30T06:30:01.382Z,7.02
2023-04-30T06:31:01.409Z,7.05
2023-04-30T06:32:01.339Z,7.07
2023-04-30T06:33:01.439Z,7.09
2023-04-30T06:34:01.510Z,7.15
2023-04-30T06:35:01.330Z,7.17
2023-04-30T06:36:01.341Z,7.17
2023-04-30T06:37:01.383Z,7.24
2023-04-30T06:38:01.297Z,7.30
2023-04-30T06:39:01.313Z,7.31
2023-04-30T06:40:01.276Z,7.35
2023-04-30T06:41:01.273Z,7.42
2023-04-30T06:42:01.250Z,7.46
2023-04-30T06:43:01.226Z,7.42
2023-04-30T06:44:01.212Z,7.35
2023-04-30T06:45:01.212Z,7.35
2023-04-30T06:46:01.226Z,7.39
2023-04-30T06:47:01.193Z,7.40
2023-04-30T06:48:01.264Z,7.39
2023-04-30T06:49:01.173Z,7.43
2023-04-30T06:50:01.144Z,7.49
2023-04-30T06:51:01.160Z,7.53
2023-04-30T06:52:01.170Z,7.55
2023-04-30T06:53:01.121Z,7.60
2023-04-30T06:54:01.115Z,7.68
2023-04-30T06:55:01.101Z,7.71
2023-04-30T06:56:01.096Z,7.72
2023-04-30T06:57:01.089Z,7.80
2023-04-30T06:58:01.076Z,7.77
2023-04-30T06:59:01.071Z,7.82
2023-04-30T07:00:01.043Z,7.85
2023-04-30T07:01:01.109Z,7.86
2023-04-30T07:02:01.199Z,7.72
2023-04-30T07:03:01.055Z,7.75
2023-04-30T07:04:01.024Z,7.75
2023-04-30T07:05:01.006Z,7.75
2023-04-30T07:06:01.020Z,7.80
2023-04-30T07:07:00.956Z,7.85
2023-04-30T07:08:00.938Z,7.95
2023-04-30T07:09:00.929Z,8.02
2023-04-30T07:10:00.922Z,8.12
2023-04-30T07:11:00.906Z,8.08
2023-04-30T07:12:00.929Z,8.02
2023-04-30T07:13:00.890Z,8.00
2023-04-30T07:14:00.879Z,8.01
2023-04-30T07:15:00.865Z,8.04
2023-04-30T07:16:00.949Z,8.07
2023-04-30T07:17:00.874Z,8.10
2023-04-30T07:18:00.878Z,8.12
2023-04-30T07:19:00.836Z,8.08
2023-04-30T07:20:00.861Z,8.11
2023-04-30T07:21:00.795Z,8.12
2023-04-30T07:22:00.878Z,8.18
2023-04-30T07:23:00.785Z,8.22
2023-04-30T07:24:00.765Z,8.25
2023-04-30T07:25:00.760Z,8.28
2023-04-30T07:26:00.763Z,8.37
2023-04-30T07:27:00.741Z,8.36
2023-04-30T07:28:00.725Z,8.34
2023-04-30T07:29:00.718Z,8.33
2023-04-30T07:30:00.704Z,8.30
2023-04-30T07:31:00.708Z,8.26
2023-04-30T07:32:00.751Z,8.22
2023-04-30T07:33:00.781Z,8.18
2023-04-30T07:34:00.695Z,8.19
2023-04-30T07:35:00.643Z,8.19
2023-04-30T07:36:00.652Z,8.18
2023-04-30T07:37:00.625Z,8.07
2023-04-30T07:38:00.630Z,8.01
2023-04-30T07:39:00.605Z,8.01
2023-04-30T07:40:00.592Z,8.05
2023-04-30T07:41:00.589Z,8.12
2023-04-30T07:42:00.604Z,8.20
2023-04-30T07:43:00.561Z,8.34
2023-04-30T07:44:00.574Z,8.43
2023-04-30T07:45:00.552Z,8.36
2023-04-30T07:46:00.605Z,8.36
2023-04-30T07:47:00.528Z,8.38
2023-04-30T07:48:00.606Z,8.36
2023-04-30T07:49:00.499Z,8.34
2023-04-30T07:50:00.510Z,8.37
2023-04-30T07:51:00.513Z,8.41
2023-04-30T07:52:00.474Z,8.44
2023-04-30T07:53:00.477Z,8.47
2023-04-30T07:54:00.463Z,8.50
2023-04-30T07:55:00.652Z,8.55
2023-04-30T07:56:00.452Z,8.68
2023-04-30T07:57:00.531Z,8.73
2023-04-30T07:58:00.404Z,8.68
2023-04-30T07:59:00.419Z,8.66
2023-04-30T08:00:00.391Z,8.66
2023-04-30T08:01:00.408Z,8.70
2023-04-30T08:02:00.404Z,8.81
2023-04-30T08:03:00.645Z,8.87
2023-04-30T08:04:00.495Z,8.83
2023-04-30T08:05:00.327Z,8.86
2023-04-30T08:06:00.372Z,8.96
2023-04-30T08:07:00.333Z,9.14
2023-04-30T08:08:00.292Z,9.15
2023-04-30T08:09:00.287Z,9.23
2023-04-30T08:10:00.296Z,9.32
2023-04-30T08:11:00.281Z,9.36
2023-04-30T08:12:00.277Z,9.38
2023-04-30T08:13:00.249Z,9.32
2023-04-30T08:14:00.255Z,9.39
2023-04-30T08:15:00.215Z,9.57
2023-04-30T08:16:00.227Z,9.64
2023-04-30T08:17:00.320Z,9.74
2023-04-30T08:18:00.239Z,9.76
2023-04-30T08:19:00.181Z,9.81
2023-04-30T08:20:00.191Z,9.72
2023-04-30T08:21:00.162Z,9.72
2023-04-30T08:22:00.184Z,9.81
2023-04-30T08:23:00.160Z,9.79
2023-04-30T08:24:00.173Z,9.64
2023-04-30T08:25:00.142Z,9.39
2023-04-30T08:26:00.240Z,9.31
2023-04-30T08:27:00.110Z,9.29
2023-04-30T08:28:00.124Z,9.28
2023-04-30T08:29:00.118Z,9.29
2023-04-30T08:30:00.072Z,9.31
2023-04-30T08:31:00.071Z,9.33
2023-04-30T08:32:00.083Z,9.38
2023-04-30T08:33:00.084Z,9.42
2023-04-30T08:34:00.076Z,9.48
2023-04-30T08:34:59.999Z,9.46
2023-04-30T08:36:00.188Z,9.43
2023-04-30T08:37:00.018Z,9.40
2023-04-30T08:38:00.148Z,9.43
2023-04-30T08:38:59.968Z,9.46
2023-04-30T08:39:59.991Z,9.39
2023-04-30T08:41:00.020Z,9.43
2023-04-30T08:41:59.956Z,9.42
2023-04-30T08:42:59.932Z,9.47
2023-04-30T08:43:59.910Z,9.43
2023-04-30T08:44:59.932Z,9.38
2023-04-30T08:46:00.048Z,9.40
2023-04-30T08:46:59.877Z,9.39
2023-04-30T08:47:59.974Z,9.40
2023-04-30T08:48:59.863Z,9.46
2023-04-30T08:49:59.847Z,9.48
2023-04-30T08:50:59.832Z,9.51
2023-04-30T08:51:59.822Z,9.79
2023-04-30T08:52:59.810Z,9.89
2023-04-30T08:53:59.810Z,9.90
2023-04-30T08:54:59.795Z,9.97
2023-04-30T08:55:59.819Z,9.91
2023-04-30T08:56:59.783Z,9.90
2023-04-30T08:57:59.766Z,9.90
2023-04-30T08:58:59.740Z,9.93
2023-04-30T08:59:59.756Z,9.89
2023-04-30T09:00:59.744Z,9.93
2023-04-30T09:01:59.772Z,9.99
2023-04-30T09:02:59.770Z,10.07
2023-04-30T09:03:59.826Z,10.14
2023-04-30T09:04:59.709Z,10.22
2023-04-30T09:05:59.710Z,10.18
2023-04-30T09:06:59.786Z,10.14
2023-04-30T09:08:03.597Z,10.14
2023-04-30T09:08:59.632Z,10.15
2023-04-30T09:09:59.653Z,10.20
2023-04-30T09:10:59.759Z,10.29
2023-04-30T09:11:59.615Z,10.33
2023-04-30T09:12:59.606Z,10.33
2023-04-30T09:13:59.584Z,10.38
2023-04-30T09:14:59.585Z,10.42
2023-04-30T09:15:59.595Z,10.42
2023-04-30T09:16:59.564Z,10.38
2023-04-30T09:17:59.626Z,10.27
2023-04-30T09:18:59.544Z,10.33
2023-04-30T09:19:59.530Z,10.33
2023-04-30T09:20:59.518Z,10.20
2023-04-30T09:21:59.516Z,10.17
2023-04-30T09:22:59.678Z,10.20
2023-04-30T09:23:59.492Z,10.25
2023-04-30T09:24:59.487Z,10.32
2023-04-30T09:25:59.475Z,10.34
2023-04-30T09:26:59.438Z,10.32
2023-04-30T09:27:59.453Z,10.25
2023-04-30T09:28:59.421Z,10.25
2023-04-30T09:29:59.487Z,10.27
2023-04-30T09:30:59.413Z,10.33
2023-04-30T09:31:59.445Z,10.36
2023-04-30T09:32:59.428Z,10.44
2023-04-30T09:33:59.380Z,10.44
2023-04-30T09:34:59.378Z,10.53
2023-04-30T09:35:59.365Z,10.81
2023-04-30T09:36:59.353Z,10.91
2023-04-30T09:37:59.333Z,10.89
2023-04-30T09:38:59.316Z,10.97
2023-04-30T09:39:59.324Z,10.88
2023-04-30T09:40:59.294Z,10.82
2023-04-30T09:41:59.291Z,10.82
2023-04-30T09:42:59.321Z,10.79
2023-04-30T09:43:59.288Z,10.79
2023-04-30T09:44:59.262Z,10.85
2023-04-30T09:45:59.246Z,10.89
2023-04-30T09:46:59.497Z,10.96
2023-04-30T09:48:09.035Z,11.03
2023-04-30T09:48:59.239Z,11.14
2023-04-30T09:49:59.203Z,11.15
2023-04-30T09:50:59.184Z,11.11
2023-04-30T09:51:59.187Z,11.28
2023-04-30T09:52:59.187Z,11.35
2023-04-30T09:53:59.176Z,11.36
2023-04-30T09:54:59.167Z,11.29
2023-04-30T09:55:59.171Z,11.25
2023-04-30T09:56:59.147Z,11.25
2023-04-30T09:57:59.123Z,11.29
2023-04-30T09:58:59.129Z,11.33
2023-04-30T09:59:59.102Z,11.36
2023-04-30T10:00:59.130Z,11.42
2023-04-30T10:01:59.091Z,11.49
2023-04-30T10:02:59.100Z,11.42
2023-04-30T10:03:59.102Z,11.35
2023-04-30T10:04:59.040Z,11.28
2023-04-30T10:05:59.052Z,11.40
2023-04-30T10:06:59.042Z,11.60
2023-04-30T10:07:59.029Z,11.67
2023-04-30T10:08:59.000Z,11.67
2023-04-30T10:09:59.020Z,11.61
2023-04-30T10:10:58.981Z,11.65
2023-04-30T10:11:58.986Z,11.75
2023-04-30T10:12:59.002Z,11.80
2023-04-30T10:13:58.944Z,11.86
2023-04-30T10:14:58.944Z,11.80
2023-04-30T10:15:58.988Z,11.70
2023-04-30T10:16:58.978Z,11.70
2023-04-30T10:17:59.019Z,11.78
2023-04-30T10:18:58.906Z,11.83
2023-04-30T10:19:58.904Z,11.80
2023-04-30T10:20:58.872Z,11.76
2023-04-30T10:21:58.884Z,11.78
2023-04-30T10:22:58.851Z,11.82
2023-04-30T10:23:58.844Z,11.82
2023-04-30T10:24:58.842Z,11.82
2023-04-30T10:25:58.824Z,11.85
2023-04-30T10:26:58.823Z,11.91
2023-04-30T10:27:58.808Z,12.07
2023-04-30T10:28:58.786Z,12.13
2023-04-30T10:29:58.785Z,12.19
2023-04-30T10:30:58.761Z,12.20
2023-04-30T10:31:58.844Z,12.24
2023-04-30T10:32:58.816Z,12.24
2023-04-30T10:33:58.781Z,12.10
2023-04-30T10:34:58.726Z,12.05
2023-04-30T10:35:58.842Z,12.09
2023-04-30T10:36:58.725Z,12.09
2023-04-30T10:37:58.708Z,12.19
2023-04-30T10:38:58.685Z,12.17
2023-04-30T10:39:58.658Z,12.16
2023-04-30T10:40:58.706Z,12.12
2023-04-30T10:41:58.722Z,12.10
2023-04-30T10:42:58.631Z,12.13
2023-04-30T10:44:01.200Z,12.09
2023-04-30T10:44:58.613Z,11.98
2023-04-30T10:45:58.806Z,11.88
2023-04-30T10:46:58.595Z,11.85
2023-04-30T10:47:58.627Z,11.78
2023-04-30T10:48:58.579Z,11.82
2023-04-30T10:49:58.561Z,11.88
2023-04-30T10:50:58.551Z,12.02
2023-04-30T10:51:58.572Z,12.16
2023-04-30T10:52:58.526Z,12.34
2023-04-30T10:53:58.532Z,12.47
2023-04-30T10:54:58.505Z,12.45
2023-04-30T10:55:58.500Z,12.49
2023-04-30T10:56:58.484Z,12.45
2023-04-30T10:57:58.482Z,12.38
2023-04-30T10:58:58.461Z,12.32
2023-04-30T10:59:58.468Z,12.31
2023-04-30T11:00:58.496Z,12.35
2023-04-30T11:01:58.680Z,12.41
2023-04-30T11:02:58.468Z,12.52
2023-04-30T11:03:58.429Z,12.77
2023-04-30T11:04:58.466Z,13.10
2023-04-30T11:05:58.426Z,13.10
2023-04-30T11:06:58.385Z,13.10
2023-04-30T11:07:58.388Z,13.05
2023-04-30T11:08:58.362Z,12.90
2023-04-30T11:09:58.360Z,12.82
2023-04-30T11:10:58.332Z,12.74
2023-04-30T11:11:58.364Z,12.74
2023-04-30T11:12:59.451Z,12.82
2023-04-30T11:13:58.301Z,12.87
2023-04-30T11:14:58.284Z,12.87
2023-04-30T11:15:58.296Z,12.86
2023-04-30T11:16:58.255Z,12.85
2023-04-30T11:17:58.365Z,12.86
2023-04-30T11:18:58.245Z,12.87
2023-04-30T11:19:58.231Z,12.83
2023-04-30T11:20:58.253Z,12.82
2023-04-30T11:21:58.217Z,12.78
2023-04-30T11:22:58.209Z,12.70
2023-04-30T11:23:58.205Z,12.57
2023-04-30T11:24:58.205Z,12.46
2023-04-30T11:25:58.166Z,12.35
2023-04-30T11:26:58.160Z,12.29
2023-04-30T11:27:58.148Z,12.23
2023-04-30T11:28:58.160Z,12.29
2023-04-30T11:29:58.471Z,12.49
2023-04-30T11:30:58.159Z,12.56
2023-04-30T11:31:58.208Z,12.62
2023-04-30T11:32:58.112Z,12.70
2023-04-30T11:33:58.090Z,12.90
2023-04-30T11:34:58.081Z,13.08
2023-04-30T11:35:58.118Z,13.19
2023-04-30T11:36:58.056Z,13.23
2023-04-30T11:37:58.037Z,13.20
2023-04-30T11:38:58.032Z,13.17
2023-04-30T11:39:58.031Z,13.15
2023-04-30T11:40:58.016Z,13.19
2023-04-30T11:41:58.146Z,13.14
2023-04-30T11:42:58.005Z,13.12
2023-04-30T11:43:57.982Z,13.12
2023-04-30T11:44:57.961Z,13.10
2023-04-30T11:45:57.991Z,13.08
2023-04-30T11:46:58.022Z,13.10
2023-04-30T11:47:57.972Z,13.11
2023-04-30T11:48:57.934Z,13.07
2023-04-30T11:49:57.914Z,13.30
2023-04-30T11:50:57.900Z,13.51
2023-04-30T11:51:57.876Z,13.69
2023-04-30T11:52:57.894Z,13.64
2023-04-30T11:53:57.865Z,13.52
2023-04-30T11:54:57.917Z,13.39
2023-04-30T11:55:57.848Z,13.36
2023-04-30T11:56:57.835Z,13.36
2023-04-30T11:57:57.818Z,13.32
2023-04-30T11:58:57.822Z,13.32
2023-04-30T11:59:57.842Z,13.36
2023-04-30T12:00:57.800Z,13.39
2023-04-30T12:01:57.819Z,13.42
2023-04-30T12:02:57.959Z,13.48
2023-04-30T12:03:57.948Z,13.48
2023-04-30T12:04:57.749Z,13.51
2023-04-30T12:05:57.742Z,13.73
2023-04-30T12:06:57.746Z,13.82
2023-04-30T12:07:57.805Z,13.84
2023-04-30T12:08:57.708Z,13.87
2023-04-30T12:09:57.886Z,13.91
2023-04-30T12:10:57.685Z,13.97
2023-04-30T12:11:57.676Z,13.92
2023-04-30T12:12:57.669Z,13.91
2023-04-30T12:13:57.675Z,13.97
2023-04-30T12:14:57.647Z,14.03
2023-04-30T12:15:57.621Z,13.92
2023-04-30T12:16:57.770Z,13.91
2023-04-30T12:17:57.724Z,13.95
2023-04-30T12:18:57.611Z,13.97
2023-04-30T12:19:57.579Z,13.89
2023-04-30T12:20:57.589Z,13.85
2023-04-30T12:21:57.581Z,13.70
2023-04-30T12:22:57.560Z,13.75
2023-04-30T12:23:57.536Z,13.89
2023-04-30T12:24:57.541Z,13.97
2023-04-30T12:25:57.518Z,14.02
2023-04-30T12:26:57.505Z,14.00
2023-04-30T12:27:57.512Z,14.07
2023-04-30T12:28:57.486Z,14.06
2023-04-30T12:29:57.607Z,14.14
2023-04-30T12:30:57.476Z,14.09
2023-04-30T12:31:57.519Z,13.91
2023-04-30T12:32:57.576Z,13.84
2023-04-30T12:33:57.463Z,13.88
2023-04-30T12:34:57.432Z,13.87
2023-04-30T12:35:57.413Z,13.96
2023-04-30T12:36:57.409Z,13.96
2023-04-30T12:37:57.407Z,13.99
2023-04-30T12:38:57.372Z,13.99
2023-04-30T12:39:57.699Z,14.02
2023-04-30T12:40:57.362Z,13.97
2023-04-30T12:41:57.342Z,13.91
2023-04-30T12:42:57.358Z,13.89
2023-04-30T12:43:57.315Z,13.89
2023-04-30T12:44:57.342Z,13.96
2023-04-30T12:45:57.364Z,14.09
2023-04-30T12:46:57.352Z,14.06
2023-04-30T12:47:57.331Z,14.03
2023-04-30T12:48:57.281Z,14.09
2023-04-30T12:49:57.378Z,14.09
2023-04-30T12:50:57.262Z,14.12
2023-04-30T12:51:57.252Z,14.14
2023-04-30T12:52:57.230Z,14.18
2023-04-30T12:53:57.262Z,14.15
2023-04-30T12:54:57.240Z,14.14
2023-04-30T12:55:57.211Z,14.20
2023-04-30T12:56:57.193Z,14.17
2023-04-30T12:57:57.317Z,14.03
2023-04-30T12:58:57.162Z,13.89
2023-04-30T12:59:57.495Z,13.87
2023-04-30T13:00:57.144Z,13.88
2023-04-30T13:01:57.225Z,14.06
2023-04-30T13:02:57.179Z,14.17
2023-04-30T13:03:57.224Z,14.12
2023-04-30T13:04:57.144Z,14.17
2023-04-30T13:05:57.150Z,14.17
2023-04-30T13:06:57.085Z,14.12
2023-04-30T13:07:57.061Z,14.10
2023-04-30T13:08:58.970Z,14.14
2023-04-30T13:09:57.226Z,14.10